Time;durP1;ratioP1;P1;durP2;ratioP2;P2;SDS_P1;SDS_P2;PMS_P1;PMS_P2;Temp;Humidity;BMP_temperature;BMP_pressure;BME280_temperature;BME280_humidity;BME280_pressure;Samples;Min_cycle;Max_cycle;Signal;HPM_P1;HPM_P2
2023/03/09 00:01:33;;;;;;;4.23;1.70;;;;;;;;;;5013174;28;20197;-93
2023/03/09 00:04:01;;;;;;;4.97;2.13;;;;;;;;;;5008760;28;20306;-91
2023/03/09 00:06:29;;;;;;;3.23;1.90;;;;;;;;;;5011495;28;20230;-94
2023/03/09 00:08:56;;;;;;;5.87;2.33;;;;;;;;;;5013498;28;20205;-93
2023/03/09 00:11:24;;;;;;;4.23;2.30;;;;;;;;;;5014031;28;20201;-92
2023/03/09 00:13:52;;;;;;;14.60;2.27;;;;;;;;;;5013783;28;20295;-93
2023/03/09 00:16:20;;;;;;;7.83;1.83;;;;;;;;;;5012021;28;20208;-92
2023/03/09 00:18:51;;;;;;;3.73;1.60;;;;;;;;;;5006036;28;20228;-93
2023/03/09 00:21:34;;;;;;;5.00;1.73;;;;;;;;;;5012754;28;20204;-93
2023/03/09 00:24:01;;;;;;;2.97;1.50;;;;;;;;;;5012194;28;20203;-93
2023/03/09 00:26:29;;;;;;;2.43;1.47;;;;;;;;;;5009158;28;20236;-93
2023/03/09 00:28:56;;;;;;;2.50;1.10;;;;;;;;;;5012972;28;20227;-93
2023/03/09 00:31:24;;;;;;;2.70;1.50;;;;;;;;;;4991697;28;20293;-93
2023/03/09 00:33:53;;;;;;;4.53;1.60;;;;;;;;;;5009843;28;20288;-94
2023/03/09 00:36:24;;;;;;;2.47;1.20;;;;;;;;;;5013326;28;20272;-92
2023/03/09 00:38:52;;;;;;;3.90;1.47;;;;;;;;;;4996433;28;20295;-93
2023/03/09 00:41:19;;;;;;;3.87;1.30;;;;;;;;;;5011298;28;20263;-93
2023/03/09 00:43:46;;;;;;;2.43;1.10;;;;;;;;;;5012561;28;20291;-93
2023/03/09 00:46:14;;;;;;;3.13;1.10;;;;;;;;;;5014400;28;20279;-93
2023/03/09 00:48:42;;;;;;;1.33;0.80;;;;;;;;;;4997562;28;20219;-94
2023/03/09 00:51:11;;;;;;;1.07;0.90;;;;;;;;;;5014944;28;20296;-94
2023/03/09 00:53:40;;;;;;;1.33;0.90;;;;;;;;;;5011990;28;20287;-94
2023/03/09 00:56:08;;;;;;;1.17;0.90;;;;;;;;;;5014090;28;20236;-93
2023/03/09 00:58:37;;;;;;;1.40;0.70;;;;;;;;;;5013463;28;20226;-94
2023/03/09 01:01:08;;;;;;;1.90;0.90;;;;;;;;;;5013011;28;20200;-94
2023/03/09 01:03:35;;;;;;;1.73;1.03;;;;;;;;;;5012419;28;20204;-94
2023/03/09 01:06:02;;;;;;;1.57;0.70;;;;;;;;;;5013610;28;20239;-93
2023/03/09 01:08:32;;;;;;;0.70;0.70;;;;;;;;;;5011934;28;20231;-94
2023/03/09 01:10:59;;;;;;;3.17;0.70;;;;;;;;;;5012215;28;20229;-92
2023/03/09 01:13:26;;;;;;;6.43;0.93;;;;;;;;;;5013225;28;20244;-92
2023/03/09 01:15:54;;;;;;;1.57;0.80;;;;;;;;;;5010816;28;20236;-93
2023/03/09 01:18:21;;;;;;;1.10;0.70;;;;;;;;;;5009889;28;20228;-93
2023/03/09 01:20:48;;;;;;;1.57;0.60;;;;;;;;;;5005790;28;20229;-93
2023/03/09 01:23:15;;;;;;;2.40;0.90;;;;;;;;;;5012998;28;20212;-90
2023/03/09 01:25:44;;;;;;;2.87;1.00;;;;;;;;;;5012602;28;20296;-93
2023/03/09 01:28:11;;;;;;;0.70;0.60;;;;;;;;;;5012021;28;20220;-93
2023/03/09 01:30:39;;;;;;;1.90;1.00;;;;;;;;;;5007112;28;20256;-92
2023/03/09 01:33:06;;;;;;;3.53;0.90;;;;;;;;;;5009497;28;20224;-93
2023/03/09 01:35:34;;;;;;;1.63;0.80;;;;;;;;;;5012677;28;20232;-93
2023/03/09 01:38:01;;;;;;;3.93;0.80;;;;;;;;;;5012996;28;20259;-92
2023/03/09 01:40:28;;;;;;;4.77;1.03;;;;;;;;;;5012072;28;20300;-93
2023/03/09 01:43:00;;;;;;;1.77;1.10;;;;;;;;;;5008261;28;20231;-92
2023/03/09 01:45:46;;;;;;;1.60;0.70;;;;;;;;;;5006930;28;20291;-93
2023/03/09 01:48:14;;;;;;;1.57;0.73;;;;;;;;;;5005939;28;20209;-91
2023/03/09 01:50:43;;;;;;;1.10;0.70;;;;;;;;;;5012075;28;20208;-93
2023/03/09 01:53:13;;;;;;;2.30;0.63;;;;;;;;;;5008043;28;20232;-93
2023/03/09 01:55:44;;;;;;;2.53;1.00;;;;;;;;;;5011793;28;20213;-93
2023/03/09 01:58:16;;;;;;;1.37;0.60;;;;;;;;;;5012655;28;20233;-92
2023/03/09 02:00:45;;;;;;;0.93;0.70;;;;;;;;;;5013137;28;20216;-90
2023/03/09 02:03:14;;;;;;;1.27;0.60;;;;;;;;;;5007178;28;20205;-93
2023/03/09 02:05:43;;;;;;;2.13;0.90;;;;;;;;;;5010259;28;20296;-93
2023/03/09 02:08:13;;;;;;;2.67;0.80;;;;;;;;;;5016967;28;20208;-93
2023/03/09 02:10:44;;;;;;;2.57;0.90;;;;;;;;;;5009275;28;20232;-92
2023/03/09 02:13:17;;;;;;;1.63;1.10;;;;;;;;;;5013726;28;20292;-93
2023/03/09 02:15:45;;;;;;;2.00;0.90;;;;;;;;;;5009642;28;20228;-92
2023/03/09 02:18:12;;;;;;;2.17;1.00;;;;;;;;;;5008503;28;20295;-92
2023/03/09 02:20:42;;;;;;;3.73;0.80;;;;;;;;;;5010332;28;20248;-90
2023/03/09 02:23:15;;;;;;;2.23;0.80;;;;;;;;;;5005481;28;20286;-93
2023/03/09 02:25:48;;;;;;;2.17;1.10;;;;;;;;;;5007205;28;20271;-93
2023/03/09 02:28:19;;;;;;;0.83;0.53;;;;;;;;;;5008255;28;20306;-92
2023/03/09 02:30:47;;;;;;;3.13;1.10;;;;;;;;;;5012720;28;20284;-93
2023/03/09 02:33:25;;;;;;;3.03;0.80;;;;;;;;;;5011814;28;20204;-93
2023/03/09 02:35:53;;;;;;;2.37;1.10;;;;;;;;;;5011823;28;20207;-93
2023/03/09 02:38:20;;;;;;;2.37;1.10;;;;;;;;;;5012498;28;20236;-93
2023/03/09 02:40:48;;;;;;;1.20;0.90;;;;;;;;;;5013995;28;20201;-93
2023/03/09 02:43:16;;;;;;;2.30;1.03;;;;;;;;;;5014538;28;20354;-91
2023/03/09 02:45:46;;;;;;;2.00;1.20;;;;;;;;;;5006615;28;20275;-93
2023/03/09 02:48:13;;;;;;;3.03;1.27;;;;;;;;;;5014591;28;20232;-90
2023/03/09 02:50:41;;;;;;;2.53;0.93;;;;;;;;;;5015237;28;20221;-91
2023/03/09 02:53:08;;;;;;;2.27;1.00;;;;;;;;;;5013482;28;20229;-92
2023/03/09 02:55:35;;;;;;;3.57;1.27;;;;;;;;;;5005354;28;20276;-89
2023/03/09 02:58:03;;;;;;;1.67;1.00;;;;;;;;;;5014592;28;20292;-92
2023/03/09 03:00:30;;;;;;;3.93;1.37;;;;;;;;;;5015450;28;20262;-93
2023/03/09 03:03:02;;;;;;;3.53;1.43;;;;;;;;;;5013531;28;20312;-90
2023/03/09 03:05:29;;;;;;;4.13;1.47;;;;;;;;;;5011051;28;20259;-91
2023/03/09 03:07:56;;;;;;;5.47;1.40;;;;;;;;;;5012348;28;20228;-92
2023/03/09 03:10:24;;;;;;;4.43;1.67;;;;;;;;;;5011178;28;20209;-92
2023/03/09 03:12:51;;;;;;;2.67;1.40;;;;;;;;;;4996081;28;20211;-91
2023/03/09 03:15:22;;;;;;;4.60;1.53;;;;;;;;;;5015494;28;20200;-91
2023/03/09 03:17:52;;;;;;;3.90;1.33;;;;;;;;;;5013451;28;20211;-93
2023/03/09 03:20:21;;;;;;;6.30;1.50;;;;;;;;;;5009928;28;20289;-92
2023/03/09 03:22:49;;;;;;;6.17;2.00;;;;;;;;;;5014734;28;20272;-92
2023/03/09 03:25:17;;;;;;;6.43;1.57;;;;;;;;;;5013773;28;20296;-92
2023/03/09 03:27:44;;;;;;;5.30;1.40;;;;;;;;;;5010723;28;20306;-91
2023/03/09 03:30:12;;;;;;;4.03;1.50;;;;;;;;;;4996256;28;20201;-90
2023/03/09 03:32:40;;;;;;;5.80;2.23;;;;;;;;;;5001984;28;20232;-93
2023/03/09 03:35:07;;;;;;;4.20;1.53;;;;;;;;;;5008187;28;20291;-92
2023/03/09 03:37:36;;;;;;;7.03;2.10;;;;;;;;;;5013636;28;20200;-93
2023/03/09 03:40:08;;;;;;;4.70;1.60;;;;;;;;;;4999508;28;20260;-92
2023/03/09 03:42:35;;;;;;;6.73;1.80;;;;;;;;;;4996031;28;20203;-93
2023/03/09 03:45:02;;;;;;;6.60;1.70;;;;;;;;;;5013676;28;20289;-91
2023/03/09 03:47:30;;;;;;;5.13;1.63;;;;;;;;;;5013643;28;20311;-92
2023/03/09 03:49:57;;;;;;;7.10;1.70;;;;;;;;;;5004302;28;20303;-91
2023/03/09 03:52:24;;;;;;;7.03;2.10;;;;;;;;;;5003807;28;20211;-92
2023/03/09 03:54:53;;;;;;;7.03;1.77;;;;;;;;;;5005817;28;20209;-91
2023/03/09 03:57:23;;;;;;;6.83;1.80;;;;;;;;;;5009359;28;20310;-91
2023/03/09 03:59:51;;;;;;;4.87;1.90;;;;;;;;;;5009495;28;20208;-91
2023/03/09 04:02:18;;;;;;;7.50;2.10;;;;;;;;;;5006761;28;20244;-90
2023/03/09 04:04:45;;;;;;;10.13;2.30;;;;;;;;;;5009474;28;20300;-91
2023/03/09 04:07:13;;;;;;;7.47;2.33;;;;;;;;;;5010930;28;20248;-92
2023/03/09 04:09:40;;;;;;;7.90;2.50;;;;;;;;;;5011223;28;20216;-92
2023/03/09 04:12:10;;;;;;;7.43;2.13;;;;;;;;;;5012259;28;20228;-91
2023/03/09 04:14:38;;;;;;;8.00;2.20;;;;;;;;;;5012854;28;20205;-91
2023/03/09 04:17:05;;;;;;;6.27;2.17;;;;;;;;;;5014806;28;20211;-92
2023/03/09 04:19:33;;;;;;;11.30;2.57;;;;;;;;;;5014268;28;20291;-92
2023/03/09 04:22:00;;;;;;;9.47;2.40;;;;;;;;;;5013575;28;20296;-92
2023/03/09 04:24:27;;;;;;;9.80;2.53;;;;;;;;;;5011330;28;20229;-92
2023/03/09 04:26:55;;;;;;;12.03;2.70;;;;;;;;;;5013084;28;20311;-91
2023/03/09 04:29:24;;;;;;;13.90;2.90;;;;;;;;;;5011323;28;20269;-91
2023/03/09 04:31:51;;;;;;;10.50;3.30;;;;;;;;;;4996861;28;20200;-93
2023/03/09 04:34:19;;;;;;;15.37;3.00;;;;;;;;;;5013515;28;20300;-92
2023/03/09 04:36:46;;;;;;;11.57;2.80;;;;;;;;;;5009080;28;20304;-92
2023/03/09 04:39:14;;;;;;;13.33;2.93;;;;;;;;;;5012211;28;20239;-92
2023/03/09 04:41:41;;;;;;;11.03;2.93;;;;;;;;;;5013113;28;20229;-92
2023/03/09 04:44:08;;;;;;;11.83;3.07;;;;;;;;;;5009686;28;20259;-92
2023/03/09 04:46:37;;;;;;;10.80;3.13;;;;;;;;;;5013144;28;20219;-93
2023/03/09 04:49:05;;;;;;;17.00;3.43;;;;;;;;;;5012853;28;20269;-92
2023/03/09 04:51:32;;;;;;;12.40;2.93;;;;;;;;;;5011989;28;20280;-93
2023/03/09 04:53:59;;;;;;;12.13;3.07;;;;;;;;;;5013926;28;20291;-93
2023/03/09 04:56:27;;;;;;;10.77;3.20;;;;;;;;;;5014184;28;20287;-92
2023/03/09 04:58:56;;;;;;;11.27;3.43;;;;;;;;;;5013589;28;20213;-92
2023/03/09 05:01:24;;;;;;;9.57;3.53;;;;;;;;;;5013522;28;20197;-92
2023/03/09 05:03:52;;;;;;;12.83;3.20;;;;;;;;;;5008980;28;20295;-92
2023/03/09 05:06:20;;;;;;;16.47;3.60;;;;;;;;;;5014569;28;20283;-92
2023/03/09 05:08:48;;;;;;;12.17;3.27;;;;;;;;;;5011478;28;20220;-92
2023/03/09 05:11:15;;;;;;;8.73;3.40;;;;;;;;;;5010921;28;20228;-92
2023/03/09 05:13:42;;;;;;;16.17;3.40;;;;;;;;;;5009866;28;20224;-92
2023/03/09 05:16:10;;;;;;;12.17;3.40;;;;;;;;;;5012057;28;20295;-92
2023/03/09 05:18:37;;;;;;;11.20;3.20;;;;;;;;;;5012026;28;20239;-92
2023/03/09 05:21:08;;;;;;;7.83;2.93;;;;;;;;;;5009675;28;20205;-93
2023/03/09 05:23:35;;;;;;;11.77;3.40;;;;;;;;;;5007268;28;20211;-91
2023/03/09 05:26:06;;;;;;;11.93;3.40;;;;;;;;;;5013700;28;20243;-93
2023/03/09 05:28:34;;;;;;;8.50;3.20;;;;;;;;;;5009743;28;20220;-91
2023/03/09 05:31:02;;;;;;;10.27;3.37;;;;;;;;;;5011675;28;20240;-92
2023/03/09 05:33:30;;;;;;;9.13;3.20;;;;;;;;;;5009178;28;20201;-92
2023/03/09 05:35:57;;;;;;;8.60;2.90;;;;;;;;;;5008359;28;20232;-92
2023/03/09 05:38:26;;;;;;;9.33;3.10;;;;;;;;;;5010538;28;20268;-91
2023/03/09 05:40:56;;;;;;;6.57;2.70;;;;;;;;;;5012547;28;20220;-93
2023/03/09 05:43:23;;;;;;;6.83;2.97;;;;;;;;;;5012134;28;20216;-94
2023/03/09 05:45:55;;;;;;;8.90;3.00;;;;;;;;;;5009607;28;20224;-91
2023/03/09 05:48:25;;;;;;;6.23;2.57;;;;;;;;;;5012058;28;20220;-95
2023/03/09 05:50:53;;;;;;;9.53;2.93;;;;;;;;;;5017647;28;20204;-93
2023/03/09 05:53:20;;;;;;;6.33;2.90;;;;;;;;;;5015923;28;20215;-93
2023/03/09 05:55:55;;;;;;;7.97;2.90;;;;;;;;;;5023788;28;20188;-90
2023/03/09 05:58:22;;;;;;;4.17;1.93;;;;;;;;;;5019888;28;20197;-96
2023/03/09 06:00:49;;;;;;;5.67;2.10;;;;;;;;;;5024939;28;20208;-95
2023/03/09 06:03:17;;;;;;;3.73;2.00;;;;;;;;;;5023694;28;20272;-88
2023/03/09 06:05:45;;;;;;;5.30;2.20;;;;;;;;;;5024258;28;20193;-94
2023/03/09 06:08:12;;;;;;;3.53;1.83;;;;;;;;;;5024380;28;20224;-96
2023/03/09 06:10:40;;;;;;;4.53;2.10;;;;;;;;;;5021406;28;20201;-94
2023/03/09 06:13:09;;;;;;;3.33;1.53;;;;;;;;;;5018976;28;20254;-94
2023/03/09 06:15:38;;;;;;;4.13;1.73;;;;;;;;;;4999864;28;20276;-91
2023/03/09 06:18:06;;;;;;;3.70;1.87;;;;;;;;;;5019314;28;20197;-95
2023/03/09 06:20:33;;;;;;;5.63;1.87;;;;;;;;;;5016201;28;20247;-96
2023/03/09 06:23:00;;;;;;;3.20;1.50;;;;;;;;;;5017114;28;20204;-89
2023/03/09 06:25:27;;;;;;;5.37;1.60;;;;;;;;;;5005164;28;20211;-95
2023/03/09 06:27:55;;;;;;;4.27;1.50;;;;;;;;;;5011386;28;20312;-95
2023/03/09 06:30:26;;;;;;;5.60;1.73;;;;;;;;;;5012048;28;20339;-94
2023/03/09 06:32:53;;;;;;;4.53;1.90;;;;;;;;;;5011184;28;20205;-95
2023/03/09 06:35:21;;;;;;;2.80;1.50;;;;;;;;;;5008910;28;20292;-93
2023/03/09 06:37:48;;;;;;;6.10;4.20;;;;;;;;;;5004337;28;20293;-93
2023/03/09 06:40:15;;;;;;;4.50;2.13;;;;;;;;;;5008631;28;20308;-93
2023/03/09 06:42:43;;;;;;;2.90;1.80;;;;;;;;;;5009809;28;20247;-94
2023/03/09 06:45:11;;;;;;;4.53;2.27;;;;;;;;;;5011253;28;20299;-90
2023/03/09 06:47:40;;;;;;;4.97;1.97;;;;;;;;;;5009149;28;20225;-93
2023/03/09 06:50:07;;;;;;;5.47;1.73;;;;;;;;;;5013677;28;20201;-95
2023/03/09 06:52:35;;;;;;;2.90;1.43;;;;;;;;;;4991089;28;20212;-94
2023/03/09 06:55:02;;;;;;;4.20;1.57;;;;;;;;;;5011124;28;20208;-92
2023/03/09 06:57:29;;;;;;;3.33;1.83;;;;;;;;;;5012488;28;20228;-95
2023/03/09 06:59:57;;;;;;;4.97;1.97;;;;;;;;;;5020967;28;20255;-94
2023/03/09 07:02:24;;;;;;;6.00;1.77;;;;;;;;;;5006963;28;20194;-95
2023/03/09 07:04:53;;;;;;;3.73;1.80;;;;;;;;;;5016265;28;20228;-92
2023/03/09 07:07:20;;;;;;;3.17;1.60;;;;;;;;;;5016435;28;20266;-94
2023/03/09 07:09:47;;;;;;;5.67;1.93;;;;;;;;;;5011782;28;20232;-93
2023/03/09 07:12:15;;;;;;;6.63;2.00;;;;;;;;;;5018111;28;20216;-94
2023/03/09 07:14:42;;;;;;;3.10;1.67;;;;;;;;;;5012594;28;20236;-93
2023/03/09 07:17:12;;;;;;;8.17;1.80;;;;;;;;;;5001090;28;20256;-94
2023/03/09 07:19:40;;;;;;;6.83;2.10;;;;;;;;;;5007753;28;20297;-94
2023/03/09 07:22:09;;;;;;;6.43;1.90;;;;;;;;;;5009160;28;20212;-93
2023/03/09 07:24:36;;;;;;;3.60;1.63;;;;;;;;;;5002280;28;20300;-94
2023/03/09 07:27:04;;;;;;;6.47;1.97;;;;;;;;;;5008976;28;20224;-94
2023/03/09 07:29:31;;;;;;;5.27;1.80;;;;;;;;;;5012794;28;20253;-95
2023/03/09 07:31:58;;;;;;;6.80;1.90;;;;;;;;;;5008879;28;20212;-94
2023/03/09 07:34:26;;;;;;;7.60;2.20;;;;;;;;;;5009440;28;20202;-92
2023/03/09 07:36:53;;;;;;;7.33;2.30;;;;;;;;;;5011766;28;20197;-93
2023/03/09 07:39:22;;;;;;;6.57;2.40;;;;;;;;;;5010826;28;20328;-92
2023/03/09 07:41:49;;;;;;;7.60;1.93;;;;;;;;;;5008327;28;20207;-95
2023/03/09 07:44:16;;;;;;;5.27;1.70;;;;;;;;;;5014311;28;20241;-94
2023/03/09 07:46:44;;;;;;;6.53;2.60;;;;;;;;;;5007803;28;20201;-94
2023/03/09 07:49:11;;;;;;;6.37;1.90;;;;;;;;;;5011461;28;20293;-95
2023/03/09 07:51:38;;;;;;;8.77;2.10;;;;;;;;;;5008218;28;20227;-93
2023/03/09 07:54:06;;;;;;;7.83;2.23;;;;;;;;;;5004047;28;20223;-88
2023/03/09 07:56:34;;;;;;;5.10;2.00;;;;;;;;;;5004438;28;20236;-95
2023/03/09 07:59:03;;;;;;;4.93;1.77;;;;;;;;;;5014416;28;20208;-94
2023/03/09 08:01:31;;;;;;;6.27;2.20;;;;;;;;;;5011787;28;20220;-90
2023/03/09 08:03:59;;;;;;;7.33;1.77;;;;;;;;;;5013774;28;20204;-94
2023/03/09 08:06:27;;;;;;;7.87;2.10;;;;;;;;;;5014366;28;20393;-94
2023/03/09 08:08:54;;;;;;;7.17;2.07;;;;;;;;;;5013255;28;20312;-92
2023/03/09 08:11:23;;;;;;;7.07;1.93;;;;;;;;;;5015728;28;20288;-94
2023/03/09 08:13:50;;;;;;;9.53;2.13;;;;;;;;;;5012581;28;20207;-94
2023/03/09 08:16:18;;;;;;;9.13;2.00;;;;;;;;;;5010508;28;20237;-93
2023/03/09 08:18:46;;;;;;;8.20;2.10;;;;;;;;;;5015842;28;20291;-94
2023/03/09 08:21:14;;;;;;;7.73;2.67;;;;;;;;;;5019916;28;20240;-95
2023/03/09 08:23:43;;;;;;;9.73;2.27;;;;;;;;;;5012305;28;20300;-93
2023/03/09 08:26:13;;;;;;;7.83;2.30;;;;;;;;;;5008002;28;20213;-91
2023/03/09 08:28:45;;;;;;;7.50;2.30;;;;;;;;;;5010185;28;20224;-92
2023/03/09 08:31:17;;;;;;;10.17;2.03;;;;;;;;;;5013218;28;20224;-95
2023/03/09 08:33:48;;;;;;;9.07;2.63;;;;;;;;;;5013273;28;20209;-94
2023/03/09 08:36:16;;;;;;;9.50;2.30;;;;;;;;;;5014403;28;20333;-95
2023/03/09 08:38:44;;;;;;;8.17;2.33;;;;;;;;;;5007599;28;20225;-95
2023/03/09 08:41:12;;;;;;;7.77;2.43;;;;;;;;;;5013899;28;20208;-95
2023/03/09 08:43:39;;;;;;;9.27;2.23;;;;;;;;;;5013509;28;20221;-90
2023/03/09 08:46:07;;;;;;;7.47;2.37;;;;;;;;;;5011950;28;20256;-95
2023/03/09 08:48:34;;;;;;;11.40;2.63;;;;;;;;;;5012789;28;20251;-93
2023/03/09 08:51:05;;;;;;;11.60;2.33;;;;;;;;;;5015415;28;20217;-94
2023/03/09 08:53:33;;;;;;;12.13;2.77;;;;;;;;;;5011694;28;20205;-95
2023/03/09 08:56:03;;;;;;;12.70;2.73;;;;;;;;;;5014115;28;20213;-95
2023/03/09 08:58:30;;;;;;;8.60;2.23;;;;;;;;;;5014043;28;20228;-95
2023/03/09 09:00:57;;;;;;;9.40;2.90;;;;;;;;;;5014847;28;20197;-96
2023/03/09 09:03:25;;;;;;;10.07;2.40;;;;;;;;;;5015352;28;20252;-95
2023/03/09 09:05:52;;;;;;;10.13;2.30;;;;;;;;;;5013574;28;20232;-89
2023/03/09 09:08:20;;;;;;;7.90;2.10;;;;;;;;;;5002901;28;20248;-95
2023/03/09 09:13:54;;;;;;;7.47;2.13;;;;;;;;;;5002204;28;20203;-91
2023/03/09 09:16:22;;;;;;;10.37;2.27;;;;;;;;;;5011909;28;20216;-93
2023/03/09 09:18:49;;;;;;;8.00;2.67;;;;;;;;;;5011224;28;20216;-92
2023/03/09 09:21:18;;;;;;;6.57;2.27;;;;;;;;;;5008608;28;20217;-92
2023/03/09 09:23:47;;;;;;;8.47;2.40;;;;;;;;;;5008808;28;20251;-91
2023/03/09 09:26:14;;;;;;;11.70;2.60;;;;;;;;;;5013784;28;20236;-94
2023/03/09 09:28:42;;;;;;;10.83;2.43;;;;;;;;;;5010957;28;20315;-87
2023/03/09 09:31:12;;;;;;;6.20;1.90;;;;;;;;;;5012681;28;20296;-96
2023/03/09 09:33:40;;;;;;;6.70;2.37;;;;;;;;;;5005195;28;20316;-94
2023/03/09 09:36:09;;;;;;;7.53;2.27;;;;;;;;;;5014142;28;20201;-94
2023/03/09 09:38:36;;;;;;;10.97;2.63;;;;;;;;;;5013246;28;20320;-95
2023/03/09 09:41:07;;;;;;;13.63;2.53;;;;;;;;;;5005201;28;20201;-91
2023/03/09 09:43:35;;;;;;;7.73;2.53;;;;;;;;;;5008484;28;20221;-92
2023/03/09 09:46:04;;;;;;;9.33;2.43;;;;;;;;;;5012449;28;20227;-94
2023/03/09 09:48:31;;;;;;;8.07;2.20;;;;;;;;;;5012215;28;20228;-94
2023/03/09 09:51:12;;;;;;;9.93;2.57;;;;;;;;;;5014719;28;20251;-94
2023/03/09 09:53:43;;;;;;;9.07;2.37;;;;;;;;;;5009258;28;20197;-94
2023/03/09 09:56:13;;;;;;;8.73;2.50;;;;;;;;;;5013048;28;20220;-95
2023/03/09 09:58:45;;;;;;;6.20;2.33;;;;;;;;;;5010538;28;20217;-94
2023/03/09 10:01:19;;;;;;;7.13;2.40;;;;;;;;;;5013734;28;20232;-95
2023/03/09 10:03:47;;;;;;;7.97;2.60;;;;;;;;;;5013523;28;20197;-95
2023/03/09 10:06:17;;;;;;;8.37;2.50;;;;;;;;;;5012751;28;20335;-95
2023/03/09 10:08:48;;;;;;;9.07;2.37;;;;;;;;;;5013031;28;20259;-95
2023/03/09 10:11:20;;;;;;;12.07;2.77;;;;;;;;;;5010153;28;20220;-94
2023/03/09 10:13:49;;;;;;;11.77;2.40;;;;;;;;;;5011155;28;20288;-94
2023/03/09 10:16:18;;;;;;;10.97;2.50;;;;;;;;;;5013879;28;20293;-94
2023/03/09 10:18:48;;;;;;;9.97;2.57;;;;;;;;;;5012366;28;20220;-91
2023/03/09 10:21:19;;;;;;;10.17;2.90;;;;;;;;;;5014984;28;20212;-94
2023/03/09 10:23:46;;;;;;;10.27;2.80;;;;;;;;;;5014555;28;20229;-93
2023/03/09 10:26:22;;;;;;;14.13;3.57;;;;;;;;;;5014175;28;20236;-94
2023/03/09 10:28:51;;;;;;;14.27;2.97;;;;;;;;;;5002187;28;20228;-95
2023/03/09 10:31:20;;;;;;;13.43;3.00;;;;;;;;;;5023117;28;20275;-95
2023/03/09 10:33:49;;;;;;;9.97;2.77;;;;;;;;;;5014377;28;20233;-94
2023/03/09 10:36:19;;;;;;;10.60;2.93;;;;;;;;;;5014706;28;20197;-95
2023/03/09 10:38:46;;;;;;;11.97;3.03;;;;;;;;;;5019027;28;20276;-92
2023/03/09 10:41:16;;;;;;;8.40;2.80;;;;;;;;;;5015574;28;20200;-94
2023/03/09 10:43:44;;;;;;;10.30;3.20;;;;;;;;;;5011513;28;20229;-94
2023/03/09 10:46:14;;;;;;;11.23;2.80;;;;;;;;;;5014151;28;20292;-92
2023/03/09 10:48:41;;;;;;;13.03;2.80;;;;;;;;;;5019179;28;20263;-93
2023/03/09 10:51:21;;;;;;;10.90;2.93;;;;;;;;;;5018273;28;20226;-95
2023/03/09 10:53:49;;;;;;;9.07;2.63;;;;;;;;;;5017461;28;20205;-95
2023/03/09 10:56:18;;;;;;;15.23;2.80;;;;;;;;;;5016416;28;20209;-92
2023/03/09 10:58:46;;;;;;;10.53;2.50;;;;;;;;;;5013941;28;20232;-94
2023/03/09 11:01:24;;;;;;;13.67;3.13;;;;;;;;;;5015450;28;20216;-93
2023/03/09 11:03:52;;;;;;;10.27;3.13;;;;;;;;;;5013406;28;20310;-94
2023/03/09 11:06:29;;;;;;;11.10;3.47;;;;;;;;;;5013445;28;20224;-94
2023/03/09 11:08:59;;;;;;;8.33;2.67;;;;;;;;;;5002452;28;20231;-93
2023/03/09 11:11:27;;;;;;;10.00;3.00;;;;;;;;;;5014041;28;20268;-93
2023/03/09 11:13:56;;;;;;;10.37;2.70;;;;;;;;;;5012309;28;20233;-93
2023/03/09 11:16:25;;;;;;;9.07;2.50;;;;;;;;;;5012114;28;20197;-94
2023/03/09 11:19:06;;;;;;;11.50;2.90;;;;;;;;;;5016037;28;20219;-94
2023/03/09 11:21:33;;;;;;;12.87;3.10;;;;;;;;;;5014908;28;20287;-94
2023/03/09 11:24:02;;;;;;;11.90;3.03;;;;;;;;;;5015321;28;20212;-93
2023/03/09 11:26:30;;;;;;;9.90;2.67;;;;;;;;;;5015701;28;20340;-93
2023/03/09 11:29:04;;;;;;;8.10;2.30;;;;;;;;;;5015511;28;20217;-94
2023/03/09 11:31:35;;;;;;;7.67;2.47;;;;;;;;;;5011708;28;20231;-93
2023/03/09 11:34:02;;;;;;;11.83;2.70;;;;;;;;;;5014420;28;20292;-93
2023/03/09 11:36:33;;;;;;;10.37;2.73;;;;;;;;;;5009267;28;20227;-92
2023/03/09 11:39:03;;;;;;;10.67;2.80;;;;;;;;;;5015169;28;20205;-94
2023/03/09 11:41:32;;;;;;;8.80;2.47;;;;;;;;;;5015718;28;20227;-93
2023/03/09 11:44:03;;;;;;;8.57;2.27;;;;;;;;;;5014539;28;20331;-94
2023/03/09 11:46:31;;;;;;;11.10;3.03;;;;;;;;;;5008848;28;20232;-94
2023/03/09 11:49:03;;;;;;;10.38;2.42;;;;;;;;;;5010291;28;20316;-93
2023/03/09 11:51:32;;;;;;;10.48;2.65;;;;;;;;;;5009088;28;20225;-89
2023/03/09 11:54:03;;;;;;;10.38;2.80;;;;;;;;;;5015740;28;20233;-94
2023/03/09 11:56:32;;;;;;;7.90;2.42;;;;;;;;;;5005874;28;20201;-93
2023/03/09 11:59:05;;;;;;;8.18;2.33;;;;;;;;;;5015885;28;20204;-94
2023/03/09 12:01:36;;;;;;;8.90;2.83;;;;;;;;;;5018877;28;20296;-92
2023/03/09 12:04:05;;;;;;;7.50;2.58;;;;;;;;;;5010107;28;20292;-94
2023/03/09 12:06:35;;;;;;;10.95;3.45;;;;;;;;;;5014261;28;20261;-95
2023/03/09 12:09:03;;;;;;;10.35;2.47;;;;;;;;;;5013704;28;20274;-93
2023/03/09 12:11:33;;;;;;;6.63;2.20;;;;;;;;;;5013270;28;20213;-91
2023/03/09 12:14:04;;;;;;;9.85;2.40;;;;;;;;;;5014074;28;20235;-94
2023/03/09 12:16:33;;;;;;;7.95;2.40;;;;;;;;;;5015416;28;20228;-94
2023/03/09 12:19:02;;;;;;;6.50;2.17;;;;;;;;;;5014639;28;20197;-94
2023/03/09 12:21:31;;;;;;;4.90;2.10;;;;;;;;;;5014436;28;20217;-93
2023/03/09 12:24:00;;;;;;;7.77;1.93;;;;;;;;;;5012976;28;20229;-94
2023/03/09 12:26:31;;;;;;;5.68;2.30;;;;;;;;;;5014109;28;20224;-91
2023/03/09 12:28:59;;;;;;;8.67;2.70;;;;;;;;;;5014341;28;20216;-92
2023/03/09 12:31:32;;;;;;;11.27;2.80;;;;;;;;;;5013887;28;20247;-93
2023/03/09 12:34:03;;;;;;;8.50;2.67;;;;;;;;;;5016540;28;20225;-94
2023/03/09 12:36:32;;;;;;;10.23;2.57;;;;;;;;;;5008786;28;20263;-93
2023/03/09 12:39:17;;;;;;;12.40;2.87;;;;;;;;;;5012820;28;20237;-94
2023/03/09 12:41:58;;;;;;;9.90;2.70;;;;;;;;;;5014450;28;20260;-93
2023/03/09 12:44:46;;;;;;;8.37;2.53;;;;;;;;;;5012305;28;20260;-92
2023/03/09 12:47:23;;;;;;;10.70;2.73;;;;;;;;;;5012176;28;20236;-95
2023/03/09 12:49:52;;;;;;;10.57;3.50;;;;;;;;;;5016759;28;20219;-96
2023/03/09 12:52:40;;;;;;;15.93;3.57;;;;;;;;;;5011804;28;20217;-94
2023/03/09 12:55:15;;;;;;;14.07;3.40;;;;;;;;;;5008518;28;20292;-95
2023/03/09 12:57:43;;;;;;;13.73;3.60;;;;;;;;;;5004809;28;20223;-95
2023/03/09 13:00:27;;;;;;;13.10;3.07;;;;;;;;;;5011737;28;20271;-95
2023/03/09 13:02:57;;;;;;;13.43;3.30;;;;;;;;;;5006600;28;20224;-94
2023/03/09 13:05:40;;;;;;;11.23;3.20;;;;;;;;;;5010355;28;20217;-91
2023/03/09 13:08:19;;;;;;;15.50;3.63;;;;;;;;;;5012552;28;20209;-93
2023/03/09 13:10:46;;;;;;;11.90;3.30;;;;;;;;;;5011427;28;20308;-94
2023/03/09 13:13:32;;;;;;;14.73;3.83;;;;;;;;;;5013018;28;20228;-93
2023/03/09 13:16:14;;;;;;;17.77;3.57;;;;;;;;;;5014668;28;20211;-93
2023/03/09 13:18:43;;;;;;;12.40;3.70;;;;;;;;;;5008907;28;20232;-92
2023/03/09 13:21:25;;;;;;;14.90;3.80;;;;;;;;;;5013370;28;20232;-94
2023/03/09 13:23:53;;;;;;;16.43;3.50;;;;;;;;;;5013275;28;20208;-94
2023/03/09 13:26:20;;;;;;;11.63;3.47;;;;;;;;;;5013391;28;20267;-92
2023/03/09 13:28:49;;;;;;;15.37;3.33;;;;;;;;;;5018039;28;20201;-95
2023/03/09 13:31:23;;;;;;;11.70;3.20;;;;;;;;;;5018652;28;20220;-93
2023/03/09 13:33:52;;;;;;;12.07;3.17;;;;;;;;;;5011814;28;20205;-95
2023/03/09 13:36:22;;;;;;;13.53;3.47;;;;;;;;;;5011910;28;20204;-96
2023/03/09 13:38:50;;;;;;;13.50;3.60;;;;;;;;;;5009982;28;20284;-93
2023/03/09 13:41:20;;;;;;;14.67;3.50;;;;;;;;;;5013848;28;20227;-93
2023/03/09 13:43:49;;;;;;;12.33;3.37;;;;;;;;;;5008725;28;20232;-94
2023/03/09 13:46:23;;;;;;;15.30;3.30;;;;;;;;;;5013758;28;20205;-93
2023/03/09 13:48:53;;;;;;;13.53;3.60;;;;;;;;;;5012892;28;20295;-93
2023/03/09 13:51:24;;;;;;;15.97;3.80;;;;;;;;;;5013063;28;20217;-94
2023/03/09 13:53:51;;;;;;;15.60;3.23;;;;;;;;;;5016377;28;20200;-95
2023/03/09 13:56:19;;;;;;;12.43;3.50;;;;;;;;;;5012904;28;20201;-92
2023/03/09 13:58:48;;;;;;;13.23;3.37;;;;;;;;;;5010243;28;20269;-91
2023/03/09 14:01:25;;;;;;;17.47;3.33;;;;;;;;;;5011988;28;20200;-89
2023/03/09 14:03:54;;;;;;;12.57;3.50;;;;;;;;;;5016894;28;20236;-89
2023/03/09 14:06:27;;;;;;;15.77;3.73;;;;;;;;;;5011057;28;20232;-93
2023/03/09 14:08:56;;;;;;;16.75;3.63;;;;;;;;;;5016291;28;20197;-93
2023/03/09 14:11:24;;;;;;;11.65;3.10;;;;;;;;;;5017794;28;20244;-93
2023/03/09 14:13:55;;;;;;;19.67;3.83;;;;;;;;;;5016695;28;20197;-93
2023/03/09 14:16:22;;;;;;;11.32;3.28;;;;;;;;;;5016475;28;20205;-94
2023/03/09 14:18:50;;;;;;;10.73;3.00;;;;;;;;;;5018036;28;20287;-92
2023/03/09 14:21:24;;;;;;;15.53;3.73;;;;;;;;;;5016667;28;20208;-88
2023/03/09 14:23:51;;;;;;;9.35;2.88;;;;;;;;;;5015254;28;20260;-93
2023/03/09 14:26:28;;;;;;;15.50;3.33;;;;;;;;;;5017298;28;20209;-94
2023/03/09 14:29:00;;;;;;;11.52;3.00;;;;;;;;;;5015389;28;20278;-95
2023/03/09 14:31:27;;;;;;;11.95;3.08;;;;;;;;;;5016240;28;20337;-95
2023/03/09 14:33:59;;;;;;;12.75;3.20;;;;;;;;;;5015636;28;20229;-94
2023/03/09 14:36:28;;;;;;;13.90;3.28;;;;;;;;;;5005011;28;20205;-95
2023/03/09 14:38:57;;;;;;;13.13;3.00;;;;;;;;;;5003510;28;20211;-92
2023/03/09 14:41:27;;;;;;;13.68;3.30;;;;;;;;;;5010163;28;20211;-94
2023/03/09 14:43:56;;;;;;;13.18;3.33;;;;;;;;;;5006491;28;20204;-93
2023/03/09 14:46:25;;;;;;;12.48;3.10;;;;;;;;;;5012731;28;20197;-94
2023/03/09 14:48:53;;;;;;;12.68;3.25;;;;;;;;;;5007631;28;20206;-92
2023/03/09 14:51:22;;;;;;;9.47;2.90;;;;;;;;;;5006888;28;20224;-93
2023/03/09 14:54:00;;;;;;;10.07;3.00;;;;;;;;;;5012502;28;20224;-92